Have a Safe July 4th! 

Flight Track Log - Related Links

Times and Time Zones

All times are in EST time to prevent confusion due to time zone crossing. See the N143DE flight status page for this flight to view local times or setup timezone preferences in your user account.

Time Position Orientation Groundspeed Altitude Reporting Facility
EST Latitude Longitude Course Direction KTS MPH feet Rate Location/Type
Sat 04:00:59 AM 33.6667 -84.3667 60° Northeast 167 192 3,700  Level Atlanta TRACON
Sat 04:01:59 AM 33.6667 -84.3167 90° East 172 198 5,300 1,500 Climbing Atlanta TRACON
Sat 04:02:59 AM 33.6167 -84.3000 164° South 160 184 6,700 1,500 Climbing Atlanta TRACON
Sat 04:03:59 AM 33.5833 -84.2833 157° South 177 204 8,300 1,600 Climbing Atlanta TRACON
Sat 04:06:29 AM 33.4558 -84.2553 170° South 182 209 12,300 1,600 Climbing Atlanta Center
Sat 04:07:29 AM 33.3997 -84.2403 167° South 187 215 13,900 1,550 Climbing Atlanta Center
Sat 04:08:29 AM 33.3517 -84.2203 161° South 182 209 15,400 1,400 Climbing Atlanta Center
Sat 04:09:29 AM 33.3036 -84.2028 163° South 182 209 16,700 1,250 Climbing Atlanta Center
Sat 04:10:29 AM 33.2536 -84.1853 164° South 182 209 17,900 1,150 Climbing Atlanta Center
Sat 04:11:29 AM 33.2078 -84.1681 163° South 182 209 19,000 1,050 Climbing Atlanta Center
Sat 04:12:29 AM 33.1575 -84.1506 164° South 182 209 20,000 1,050 Climbing Atlanta Center
Sat 04:13:29 AM 33.1075 -84.1331 164° South 182 209 21,100 1,050 Climbing Atlanta Center
Sat 04:14:29 AM 33.0575 -84.1156 164° South 182 209 22,100 900 Climbing Atlanta Center
Sat 04:15:29 AM 33.0114 -84.0933 158° South 187 215 22,900 800 Climbing Atlanta Center
Sat 04:16:29 AM 32.9594 -84.0758 164° South 187 215 23,700 800 Climbing Atlanta Center
Sat 04:17:29 AM 32.9092 -84.0586 164° South 187 215 24,500 650 Climbing Atlanta Center
Sat 04:18:29 AM 32.8592 -84.0439 166° South 187 215 25,000 300 Climbing Atlanta Center
Sat 04:19:29 AM 32.8028 -84.0192 160° South 187 215 25,100 50 Climbing Atlanta Center
Sat 04:20:29 AM 32.7381 -83.9994 166° South 212 244 25,100  Level Atlanta Center
Sat 04:21:29 AM 32.6714 -83.9772 164° South 231 266 25,100  Level Atlanta Center
Sat 04:22:29 AM 32.6044 -83.9500 161° South 243 280 25,100 -30 Level Atlanta Center
Sat 04:24:47 AM 32.4611 -83.8972 163° South 242 278 25,000 -30 Descending Jacksonville Center
Sat 04:25:47 AM 32.3944 -83.8742 164° South 242 278 25,000  Level Jacksonville Center
Sat 04:26:47 AM 32.3278 -83.8489 162° South 247 284 25,000  Level Jacksonville Center
Sat 04:27:47 AM 32.2611 -83.8261 164° South 247 284 25,000  Level Jacksonville Center
Sat 04:28:47 AM 32.1947 -83.8008 162° South 247 284 25,000  Level Jacksonville Center
Sat 04:29:47 AM 32.1281 -83.7781 164° South 247 284 25,000  Level Jacksonville Center
Sat 04:30:47 AM 32.0592 -83.7531 163° South 247 284 25,000  Level Jacksonville Center
Sat 04:31:47 AM 31.9947 -83.7278 162° South 247 284 25,000  Level Jacksonville Center
Sat 04:32:47 AM 31.9281 -83.7053 164° South 247 284 25,000  Level Jacksonville Center
Sat 04:33:47 AM 31.8614 -83.6828 164° South 247 284 25,000  Level Jacksonville Center
Sat 04:34:47 AM 31.7925 -83.6553 161° South 247 284 25,000  Level Jacksonville Center
Sat 04:35:47 AM 31.7258 -83.6350 165° South 247 284 25,000  Level Jacksonville Center
Sat 04:36:47 AM 31.6592 -83.6078 161° South 252 290 25,000  Level Jacksonville Center
Sat 04:37:47 AM 31.5822 -83.5853 166° South 252 290 25,000  Level Jacksonville Center
Sat 04:38:47 AM 31.5156 -83.5603 162° South 252 290 25,000  Level Jacksonville Center
Sat 04:39:47 AM 31.4489 -83.5378 164° South 252 290 25,000  Level Jacksonville Center
Sat 04:40:47 AM 31.3800 -83.5131 163° South 252 290 25,000  Level Jacksonville Center
Sat 04:41:47 AM 31.3153 -83.4908 164° South 252 290 25,000  Level Jacksonville Center
Sat 04:42:47 AM 31.2486 -83.4661 162° South 252 290 25,000  Level Jacksonville Center
Sat 04:43:47 AM 31.1797 -83.4439 165° South 252 290 25,000  Level Jacksonville Center
Sat 04:44:47 AM 31.1111 -83.4192 163° South 257 296 25,000  Level Jacksonville Center
Sat 04:45:47 AM 31.0422 -83.3969 165° South 257 296 25,000  Level Jacksonville Center
Sat 04:46:47 AM 30.9756 -83.3722 162° South 257 296 25,000  Level Jacksonville Center
Sat 04:47:47 AM 30.9067 -83.3478 163° South 257 296 25,000  Level Jacksonville Center
Sat 04:48:47 AM 30.8378 -83.3256 165° South 257 296 25,000  Level Jacksonville Center
Sat 04:49:47 AM 30.7775 -83.3036 163° South 257 296 25,000  Level Jacksonville Center
Sat 04:50:47 AM 30.7086 -83.2792 163° South 257 296 25,000  Level Jacksonville Center
Sat 04:51:47 AM 30.6419 -83.2547 162° South 257 296 25,000  Level Jacksonville Center
Sat 04:52:47 AM 30.5708 -83.2303 164° South 262 302 25,000  Level Jacksonville Center
Sat 04:53:47 AM 30.5019 -83.2083 165° South 262 302 25,000  Level Jacksonville Center
Sat 04:54:47 AM 30.4311 -83.1842 164° South 262 302 25,000  Level Jacksonville Center
Sat 04:55:47 AM 30.3644 -83.1597 162° South 262 302 25,000  Level Jacksonville Center
Sat 04:56:47 AM 30.2933 -83.1356 164° South 262 302 25,000  Level Jacksonville Center
Sat 04:57:47 AM 30.2225 -83.1114 164° South 262 302 25,000  Level Jacksonville Center
Sat 04:58:47 AM 30.1517 -83.0872 164° South 262 302 25,000  Level Jacksonville Center
Sat 04:59:47 AM 30.0806 -83.0631 164° South 262 302 25,000  Level Jacksonville Center
Sat 05:00:47 AM 30.0014 -83.0364 164° South 262 302 25,000  Level Jacksonville Center
Sat 05:01:47 AM 29.9325 -83.0147 165° South 262 302 25,000  Level Jacksonville Center
Sat 05:02:47 AM 29.8614 -82.9908 164° South 256 295 25,000  Level Jacksonville Center
Sat 05:03:47 AM 29.7883 -82.9667 164° South 275 316 25,000  Level Jacksonville Center
Sat 05:04:47 AM 29.7194 -82.9453 165° South 275 316 25,000  Level Jacksonville Center
Sat 05:05:47 AM 29.6464 -82.9164 161° South 275 316 25,000  Level Jacksonville Center
Sat 05:06:47 AM 29.5775 -82.8950 165° South 268 308 25,000  Level Jacksonville Center
Sat 05:07:47 AM 29.5067 -82.8711 164° South 268 308 25,000  Level Jacksonville Center
Sat 05:08:47 AM 29.4336 -82.8450 163° South 268 308 25,000  Level Jacksonville Center
Sat 05:09:47 AM 29.3606 -82.8211 164° South 268 308 25,000  Level Jacksonville Center
Sat 05:10:47 AM 29.2894 -82.7972 164° South 268 308 25,000  Level Jacksonville Center
Sat 05:11:47 AM 29.2164 -82.7736 164° South 268 308 25,000  Level Jacksonville Center
Sat 05:12:47 AM 29.1453 -82.7500 164° South 268 308 25,000  Level Jacksonville Center
Sat 05:13:47 AM 29.0744 -82.7239 162° South 268 308 25,000  Level Jacksonville Center
Sat 05:14:47 AM 29.0033 -82.7003 164° South 268 308 25,000  Level Jacksonville Center
Sat 05:15:47 AM 28.9303 -82.6792 166° South 268 308 25,000  Level Jacksonville Center
Sat 05:16:47 AM 28.8592 -82.6531 162° South 268 308 25,000  Level Jacksonville Center
Sat 05:17:47 AM 28.7861 -82.6319 166° South 268 308 25,000  Level Jacksonville Center
Sat 05:18:47 AM 28.7153 -82.6061 162° South 268 308 25,000  Level Jacksonville Center
Sat 05:19:47 AM 28.6400 -82.5803 163° South 268 308 25,000  Level Jacksonville Center
Sat 05:20:47 AM 28.5669 -82.5592 166° South 268 308 25,000  Level Jacksonville Center
Sat 05:21:47 AM 28.4936 -82.5336 163° South 268 308 25,000  Level Jacksonville Center
Sat 05:23:57 AM 28.3425 -82.4864 165° South 278 320 25,000  Level Miami Center
Sat 05:24:55 AM 28.2625 -82.4564 162° South 278 320 25,000  Level Miami Center
Sat 05:25:57 AM 28.1903 -82.4317 163° South 278 320 25,000  Level Miami Center
Sat 05:26:56 AM 28.1142 -82.4067 164° South 278 320 25,000  Level Miami Center
Sat 05:27:55 AM 28.0419 -82.3844 165° South 278 320 25,000  Level Miami Center
Sat 05:28:55 AM 27.9678 -82.3619 165° South 278 320 25,000  Level Miami Center
Sat 05:29:55 AM 27.8936 -82.3372 164° South 278 320 25,000  Level Miami Center
Sat 05:30:56 AM 27.8194 -82.3103 162° South 278 320 25,000  Level Miami Center
Sat 05:31:58 AM 27.7494 -82.2906 166° South 278 320 25,000  Level Miami Center
Sat 05:32:55 AM 27.6772 -82.2636 162° South 273 314 25,000  Level Miami Center
Sat 05:33:55 AM 27.6031 -82.2414 165° South 279 321 25,000  Level Miami Center
Sat 05:34:55 AM 27.5372 -82.2194 164° South 279 321 25,000  Level Miami Center
Sat 05:35:58 AM 27.4628 -82.1972 165° South 279 321 25,000  Level Miami Center
Sat 05:36:55 AM 27.3867 -82.1703 163° South 274 315 25,000  Level Miami Center
Sat 05:37:55 AM 27.3122 -82.1483 165° South 274 315 25,000  Level Miami Center
Sat 05:38:57 AM 27.2533 -82.1083 149° Southeast 280 322 25,000  Level Miami Center
Sat 05:39:56 AM 27.1881 -82.0608 147° Southeast 275 316 25,000  Level Miami Center
Sat 05:40:57 AM 27.1169 -82.0111 148° Southeast 275 316 25,000 -49 Level Miami Center
Sat 05:41:58 AM 27.0517 -81.9664 149° Southeast 275 316 24,900 -458 Descending Miami Center
Sat 05:42:55 AM 26.9844 -81.9214 149° Southeast 280 322 24,100 -763 Descending Miami Center
Sat 05:43:56 AM 26.9150 -81.8742 149° Southeast 285 328 23,400 -843 Descending Miami Center
Sat 05:44:56 AM 26.8478 -81.8269 148° Southeast 285 328 22,400 -950 Descending Miami Center
Sat 05:45:56 AM 26.7783 -81.7822 150° Southeast 290 334 21,500 -857 Descending Miami Center
Sat 05:46:55 AM 26.7178 -81.7239 139° Southeast 290 334 20,700 -555 Descending Miami Center
Sat 05:47:55 AM 26.6672 -81.6753 139° Southeast 269 310 20,400 -496 Descending Miami Center
Sat 05:48:56 AM 26.6225 -81.6364 142° Southeast 243 280 19,700 -836 Descending Miami Center
Sat 05:49:57 AM 26.5678 -81.5853 140° Southeast 229 264 18,700 -885 Descending Miami Center
Sat 05:50:58 AM 26.5253 -81.5464 141° Southeast 224 258 17,900 -857 Descending Miami Center
Sat 05:51:56 AM 26.4764 -81.5028 141° Southeast 224 258 17,000 -974 Descending Miami Center
Sat 05:52:55 AM 26.4297 -81.4592 140° Southeast 224 258 16,000 -950 Descending Miami Center
Sat 05:53:56 AM 26.3831 -81.4181 142° Southeast 224 258 15,100 -1,033 Descending Miami Center
Sat 05:54:57 AM 26.3303 -81.3697 141° Southeast 224 258 13,900 -992 Descending Miami Center
Sat 05:55:57 AM 26.2836 -81.3261 140° Southeast 224 258 13,100 -814 Descending Miami Center
Sat 05:56:55 AM 26.2347 -81.2828 142° Southeast 224 258 12,300 -750 Descending Miami Center
Sat 05:57:57 AM 26.1881 -81.2392 140° Southeast 224 258 11,600 -650 Descending Miami Center
Sat 05:58:55 AM 26.1411 -81.2006 144° Southeast 219 252 11,000 -661 Descending Miami Center
Sat 05:59:55 AM 26.0944 -81.1572 140° Southeast 219 252 10,300 -714 Descending Miami Center
Sat 06:00:19 AM 26.0739 -81.1425 147° Southeast 215 247 10,000 -700 Descending Miami Center
Sat 06:00:55 AM 26.0497 -81.1164 136° Southeast 219 252 9,600 -658 Descending Miami Center
Sat 06:01:32 AM 26.0169 -81.0897 144° Southeast 220 253 9,200 -600 Descending Miami Center
Sat 06:01:55 AM 26.0031 -81.0731 133° Southeast 219 252 9,000 -615 Descending Miami Center
Sat 06:02:50 AM 25.9558 -81.0367 145° Southeast 214 246 8,400 -600 Descending Miami Center
Sat 06:02:55 AM 25.9603 -81.0344 24° Northeast 219 252 8,400 -735 Level Miami Center
Sat 06:03:39 AM 25.9153 -80.9983 144° Southeast 214 246 7,800 -700 Descending Miami Center
Sat 06:03:55 AM 25.9153 -80.9936 90° East 219 252 7,700 -627 Descending Miami Center
Sat 06:04:46 AM 25.8792 -80.9486 132° Southeast 216 249 7,100 -700 Descending Miami Center
Sat 06:04:55 AM 25.8814 -80.9417 70° East 214 246 7,000 -590 Descending Miami Center
Sat 06:05:47 AM 25.8725 -80.8861 100° East 209 241 6,500 -600 Descending Miami Center
Sat 06:05:55 AM 25.8769 -80.8792 55° Northeast 192 221 6,400 -556 Descending Miami Center
Sat 06:06:41 AM 25.8697 -80.8283 99° East 203 234 6,000 -500 Descending Miami Center
Sat 06:06:55 AM 25.8722 -80.8169 76° East 192 221 5,900 -689 Descending Miami Center
Sat 06:07:42 AM 25.8589 -80.7656 106° East 199 229 5,300 -700 Descending Miami Center
Sat 06:07:55 AM 25.8614 -80.7564 73° East 203 234 5,200 -545 Descending Miami Center
Sat 06:08:37 AM 25.8522 -80.7100 102° East 199 229 4,800 -600 Descending Miami Center
Sat 06:08:55 AM 25.8525 -80.6939 89° East 203 234 4,600 -615 Descending Miami Center
Sat 06:09:55 AM 25.8542 -80.6292 88° East 206 237 4,000 -641 Descending Miami Center
Sat 06:10:38 AM 25.8575 -80.5856 85° East 205 236 3,500 -517 Descending Miami Center
Sat 06:11:51 AM 25.8614 -80.5094 87° East 197 227 3,000 -397 Descending Miami Center
Sat 06:12:39 AM 25.8439 -80.4628 113° Southeast 182 209 2,700 -417 Descending Miami Center
Sat 06:13:46 AM 25.8283 -80.4114 109° East 161 185 2,200 -672 Descending Miami Center
Sat 06:14:35 AM 25.8147 -80.3742 112° Southeast 149 171 1,400 -873 Descending Miami Center
Sat 06:15:36 AM 25.8031 -80.3369 109° East 120 138 600 -787 Descending Miami Center
Sat 06:17:00 AM 25.7954 -80.2901 90° East  Level Estimated
Sat 06:24:00 AM 25.7954 -80.2901 90° East  Level Estimated

Login

Don't have an account? Register now (free) for customized features, flight alerts, and more!